Warrenton, NC (27589)

3:07 AM EST on February 10, 2016 (GMT -0500)
RAWS | | Change Station
CLOSE
Current Station
Personal Weather Station
Location: Warrenton, NC
Elevation: 435 ft
Nearby Weather Stations

Elev 435 ft 36.36 °N, 78.10 °W | Updated 51 minutes ago

Clear
Clear
28 °F
Feels Like 20 °F
N
8
Wind Variable Wind from WSW
Gusts 18.0 mph

Today
High -- | Low -- °F
--% Chance of Precip.
Yesterday
High -- | Low -- °F
Precip. -- in
Pressure 29.83 in
Visibility 10.0 miles
Clouds Clear
Windchill 20 °F
Dew Point 14 °F
Humidity 55%
Rainfall in
Snow Depth Not available.
7:06 AM 5:47 PM
Waxing Crescent, 4% visible
METAR KAVC 100756Z AUTO 26004KT 10SM CLR M03/M11 A2983 RMK AO2 T10341111
Pressure 29.83 in
Visibility 10.0 miles
Clouds Clear
Windchill 20 °F
Dew Point 14 °F
Humidity 55%
Rainfall in
Snow Depth Not available.
7:06 AM 5:47 PM
Waxing Crescent, 4% visible
METAR KAVC 100756Z AUTO 26004KT 10SM CLR M03/M11 A2983 RMK AO2 T10341111

10-Day Weather Forecast

Almanac

Astronomy

Feb. 10, 2016 Rise Set
Actual Time
Civil Twilight
Nautical Twilight
Astronomical Twilight
Moon
Length of Visible Light
Length of Day
Tomorrow will be .
, % of the Moon is Illuminated

Today's Extremes

State Highs State Lows

Community

WunderPhotos

Upload Photos

1,891,826 photos uploaded!

WunderBlog® & News

Nearby

Air Quality

  Air Quality AQ Index Pollutant
Not available.

Snow Depth

Station Depth Elevation

Earthquake Activity

City Distance Mag. Time & Date
Minimum magnitude displayed is 2.5.

Coastal Water Temperatures

Place Temperature

Stations

Nearby Weather Stations

Station Location Temp. Windchill Dew Point Humidity Wind Precip. Elev Updated Type
                   

Watches & Warnings

There are currently no watches in effect.